Wetterstation Vordersexau
Wetterdaten: Woche 20.06.11 - 26.06.11 (KW25)
Datum Zeit Temp. A. Feuchte A. Luftdruck Regen Wind Richtung Taupunkt Windchill Windben
20.06.2011 00:00 10,8 C 83 % 1017,4 hPa 0,0 l/m 0,0 km/h NO 8,0 C 10,8 C 0,0 km/h
20.06.2011 01:00 11,1 C 84 % 1017,4 hPa 0,0 l/m 0,0 km/h O 8,5 C 11,1 C 0,0 km/h
20.06.2011 02:00 11,5 C 84 % 1017,3 hPa 0,0 l/m 0,0 km/h O-NO 8,9 C 11,5 C 0,0 km/h
20.06.2011 03:00 11,5 C 85 % 1017,2 hPa 0,0 l/m 0,0 km/h O-SO 9,1 C 11,5 C 0,0 km/h
20.06.2011 04:00 11,6 C 85 % 1017,1 hPa 0,0 l/m 0,0 km/h SO 9,2 C 11,6 C 0,0 km/h
20.06.2011 05:00 11,8 C 85 % 1017,0 hPa 0,0 l/m 0,0 km/h SO 9,4 C 11,8 C 0,0 km/h
20.06.2011 06:00 11,9 C 85 % 1016,8 hPa 0,0 l/m 0,0 km/h SO 9,5 C 11,9 C 0,0 km/h
20.06.2011 07:00 12,9 C 85 % 1016,9 hPa 0,0 l/m 0,0 km/h O 10,4 C 12,9 C 0,0 km/h
20.06.2011 08:00 14,6 C 82 % 1016,5 hPa 0,0 l/m 0,0 km/h SO 11,6 C 14,6 C 0,0 km/h
20.06.2011 09:00 17,8 C 72 % 1016,2 hPa 0,0 l/m 11,7 km/h W-SW 12,7 C 15,6 C 6,5 km/h
20.06.2011 10:00 18,9 C 59 % 1015,7 hPa 0,0 l/m 19,4 km/h S-SW 10,7 C 14,9 C 10,8 km/h
20.06.2011 11:00 21,4 C 54 % 1015,5 hPa 0,0 l/m 23,3 km/h SW 11,7 C 17,5 C 13,0 km/h
20.06.2011 12:00 20,5 C 56 % 1015,0 hPa 0,0 l/m 25,3 km/h S-SO 11,4 C 16,0 C 14,0 km/h
20.06.2011 13:00 19,2 C 70 % 1015,2 hPa 0,4 l/m 5,8 km/h W-SW 13,6 C 19,2 C 3,2 km/h
20.06.2011 14:00 19,1 C 68 % 1015,1 hPa 0,0 l/m 3,2 km/h W 13,1 C 19,1 C 1,8 km/h
20.06.2011 15:00 21,4 C 63 % 1014,9 hPa 0,0 l/m 13,6 km/h S 14,1 C 19,3 C 7,6 km/h
20.06.2011 16:00 22,6 C 61 % 1014,8 hPa 0,0 l/m 23,3 km/h SW 14,7 C 19,1 C 13,0 km/h
20.06.2011 17:00 21,1 C 61 % 1014,7 hPa 0,0 l/m 11,0 km/h W-NW 13,3 C 19,6 C 6,1 km/h
20.06.2011 18:00 21,5 C 63 % 1014,6 hPa 0,0 l/m 0,0 km/h N-NO 14,2 C 21,5 C 0,0 km/h
20.06.2011 19:00 21,3 C 63 % 1014,7 hPa 0,0 l/m 0,0 km/h O-NO 14,0 C 21,3 C 0,0 km/h
20.06.2011 20:00 19,0 C 74 % 1014,5 hPa 0,0 l/m 0,0 km/h SO 14,3 C 19,0 C 0,0 km/h
20.06.2011 21:00 17,9 C 79 % 1014,9 hPa 0,0 l/m 1,3 km/h O-NO 14,2 C 17,9 C 0,7 km/h
20.06.2011 22:00 17,0 C 81 % 1015,2 hPa 0,0 l/m 0,0 km/h SO 13,7 C 17,0 C 0,0 km/h
20.06.2011 23:00 16,5 C 83 % 1015,3 hPa 0,0 l/m 0,0 km/h S-SO 13,6 C 16,5 C 0,0 km/h
21.06.2011 00:00 16,4 C 84 % 1015,2 hPa 0,0 l/m 1,9 km/h SO 13,7 C 16,4 C 1,1 km/h
21.06.2011 01:00 16,3 C 84 % 1015,1 hPa 0,0 l/m 0,0 km/h SO 13,6 C 16,3 C 0,0 km/h
21.06.2011 02:00 16,3 C 84 % 1014,8 hPa 0,0 l/m 0,0 km/h SO 13,6 C 16,3 C 0,0 km/h
21.06.2011 03:00 16,3 C 85 % 1014,4 hPa 0,0 l/m 2,6 km/h SO 13,8 C 16,3 C 1,4 km/h
21.06.2011 04:00 15,9 C 85 % 1014,2 hPa 0,0 l/m 0,0 km/h SO 13,4 C 15,9 C 0,0 km/h
21.06.2011 05:00 15,4 C 86 % 1014,1 hPa 0,0 l/m 0,0 km/h SO 13,1 C 15,4 C 0,0 km/h
21.06.2011 06:00 15,7 C 86 % 1014,4 hPa 0,0 l/m 0,0 km/h O-NO 13,4 C 15,7 C 0,0 km/h
21.06.2011 07:00 17,0 C 85 % 1014,7 hPa 0,0 l/m 0,0 km/h W 14,5 C 17,0 C 0,0 km/h
21.06.2011 08:00 26,5 C 59 % 1015,1 hPa 0,0 l/m 0,0 km/h W-SW 17,8 C 26,5 C 0,0 km/h
21.06.2011 09:00 23,8 C 59 % 1015,1 hPa 0,0 l/m 9,7 km/h S 15,3 C 22,9 C 5,4 km/h
21.06.2011 10:00 26,9 C 52 % 1015,2 hPa 0,0 l/m 22,7 km/h SW 16,2 C 24,9 C 12,6 km/h
21.06.2011 11:00 28,1 C 49 % 1015,5 hPa 0,0 l/m 18,1 km/h W 16,4 C 26,8 C 10,1 km/h
21.06.2011 12:00 27,2 C 51 % 1015,4 hPa 0,0 l/m 14,9 km/h S 16,2 C 26,0 C 8,3 km/h
21.06.2011 13:00 28,1 C 50 % 1015,1 hPa 0,0 l/m 24,0 km/h SW 16,7 C 26,4 C 13,3 km/h
21.06.2011 14:00 29,8 C 43 % 1015,0 hPa 0,0 l/m 25,3 km/h W-SW 15,8 C 28,7 C 14,0 km/h
21.06.2011 15:00 30,2 C 42 % 1014,7 hPa 0,0 l/m 16,8 km/h W-SW 15,8 C 29,5 C 9,4 km/h
21.06.2011 16:00 28,4 C 43 % 1014,5 hPa 0,0 l/m 20,1 km/h W-SW 14,6 C 27,1 C 11,2 km/h
21.06.2011 17:00 29,3 C 42 % 1014,2 hPa 0,0 l/m 9,1 km/h W-SW 15,0 C 29,0 C 5,0 km/h
21.06.2011 18:00 31,8 C 38 % 1013,7 hPa 0,0 l/m 0,0 km/h W-SW 15,7 C 31,8 C 0,0 km/h
21.06.2011 19:00 27,9 C 47 % 1013,9 hPa 0,0 l/m 0,6 km/h W 15,5 C 27,9 C 0,4 km/h
21.06.2011 20:00 24,7 C 58 % 1013,7 hPa 0,0 l/m 0,0 km/h NO 15,9 C 24,7 C 0,0 km/h
21.06.2011 21:00 22,4 C 68 % 1013,9 hPa 0,0 l/m 0,0 km/h NO 16,2 C 22,4 C 0,0 km/h
21.06.2011 22:00 21,2 C 70 % 1014,3 hPa 0,0 l/m 0,0 km/h O-SO 15,5 C 21,2 C 0,0 km/h
21.06.2011 23:00 20,3 C 73 % 1014,3 hPa 0,0 l/m 0,0 km/h O-SO 15,3 C 20,3 C 0,0 km/h
22.06.2011 00:00 19,8 C 75 % 1014,2 hPa 0,0 l/m 0,0 km/h NO 15,2 C 19,8 C 0,0 km/h
22.06.2011 01:00 18,7 C 77 % 1014,0 hPa 0,0 l/m 0,0 km/h O-NO 14,6 C 18,7 C 0,0 km/h
22.06.2011 02:00 17,3 C 80 % 1013,6 hPa 0,0 l/m 0,0 km/h S-SO 13,8 C 17,3 C 0,0 km/h
22.06.2011 03:00 17,3 C 82 % 1013,8 hPa 0,0 l/m 2,6 km/h SO 14,2 C 17,3 C 1,4 km/h
22.06.2011 04:00 17,4 C 82 % 1013,0 hPa 0,0 l/m 0,0 km/h NO 14,3 C 17,4 C 0,0 km/h
22.06.2011 05:00 17,4 C 82 % 1013,5 hPa 0,0 l/m 0,0 km/h O-NO 14,3 C 17,4 C 0,0 km/h
22.06.2011 06:00 17,5 C 82 % 1013,2 hPa 0,0 l/m 0,0 km/h SO 14,4 C 17,5 C 0,0 km/h
22.06.2011 07:00 19,0 C 81 % 1012,9 hPa 0,0 l/m 0,0 km/h SO 15,7 C 19,0 C 0,0 km/h
22.06.2011 08:00 26,1 C 63 % 1012,7 hPa 0,0 l/m 0,0 km/h W 18,5 C 26,1 C 0,0 km/h
22.06.2011 09:00 31,9 C 44 % 1012,3 hPa 0,0 l/m 9,7 km/h W-NW 18,1 C 31,8 C 5,4 km/h
22.06.2011 10:00 29,4 C 45 % 1011,3 hPa 0,0 l/m 4,5 km/h W-NW 16,2 C 29,4 C 2,5 km/h
22.06.2011 11:00 29,6 C 47 % 1010,8 hPa 0,0 l/m 0,0 km/h W 17,1 C 29,6 C 0,0 km/h
22.06.2011 12:00 21,6 C 73 % 1010,8 hPa 1,1 l/m 0,0 km/h SW 16,5 C 21,6 C 0,0 km/h
22.06.2011 13:00 27,5 C 62 % 1010,7 hPa 0,0 l/m 0,0 km/h S-SW 19,6 C 27,5 C 0,0 km/h
22.06.2011 14:00 30,1 C 52 % 1010,1 hPa 0,0 l/m 8,4 km/h W 19,1 C 29,9 C 4,7 km/h
22.06.2011 15:00 27,9 C 56 % 1010,1 hPa 0,0 l/m 3,2 km/h S 18,3 C 27,9 C 1,8 km/h
22.06.2011 16:00 17,4 C 82 % 1014,6 hPa 2,8 l/m 21,4 km/h N-NO 14,3 C 12,5 C 11,9 km/h
22.06.2011 17:00 16,6 C 84 % 1015,5 hPa 3,2 l/m 0,0 km/h SO 13,9 C 16,6 C 0,0 km/h
22.06.2011 18:00 17,1 C 85 % 1014,6 hPa 2,1 l/m 0,0 km/h W-SW 14,6 C 17,1 C 0,0 km/h
22.06.2011 19:00 18,3 C 82 % 1015,7 hPa 0,0 l/m 23,3 km/h W 15,2 C 13,4 C 13,0 km/h
22.06.2011 20:00 17,7 C 82 % 1016,1 hPa 0,0 l/m 1,9 km/h S 14,6 C 17,7 C 1,1 km/h
22.06.2011 21:00 16,4 C 85 % 1016,6 hPa 0,0 l/m 12,3 km/h O-NO 13,9 C 13,8 C 6,8 km/h
22.06.2011 22:00 15,4 C 85 % 1017,0 hPa 0,0 l/m 0,0 km/h N-NO 12,9 C 15,4 C 0,0 km/h
22.06.2011 23:00 14,9 C 86 % 1016,9 hPa 0,0 l/m 0,0 km/h NO 12,6 C 14,9 C 0,0 km/h
23.06.2011 00:00 14,9 C 85 % 1016,9 hPa 0,0 l/m 0,0 km/h NO 12,4 C 14,9 C 0,0 km/h
23.06.2011 01:00 14,9 C 86 % 1017,1 hPa 0,0 l/m 0,0 km/h NO 12,6 C 14,9 C 0,0 km/h
23.06.2011 02:00 14,7 C 85 % 1016,7 hPa 0,0 l/m 0,0 km/h O-NO 12,2 C 14,7 C 0,0 km/h
23.06.2011 03:00 14,1 C 85 % 1016,3 hPa 0,0 l/m 0,0 km/h O-SO 11,6 C 14,1 C 0,0 km/h
23.06.2011 04:00 13,9 C 85 % 1016,3 hPa 0,0 l/m 0,0 km/h SO 11,4 C 13,9 C 0,0 km/h
23.06.2011 05:00 12,6 C 85 % 1016,3 hPa 0,0 l/m 0,0 km/h SO 10,1 C 12,6 C 0,0 km/h
23.06.2011 06:00 12,9 C 85 % 1016,6 hPa 0,0 l/m 0,0 km/h S-SO 10,4 C 12,9 C 0,0 km/h
23.06.2011 07:00 15,4 C 84 % 1016,7 hPa 0,0 l/m 1,9 km/h SW 12,7 C 15,4 C 1,1 km/h
23.06.2011 08:00 19,1 C 76 % 1016,9 hPa 0,0 l/m 2,6 km/h W 14,8 C 19,1 C 1,4 km/h
23.06.2011 09:00 18,4 C 73 % 1016,9 hPa 0,0 l/m 19,4 km/h W 13,5 C 14,3 C 10,8 km/h
23.06.2011 10:00 19,9 C 71 % 1016,8 hPa 0,0 l/m 15,6 km/h W 14,5 C 17,0 C 8,6 km/h
23.06.2011 11:00 20,6 C 65 % 1016,9 hPa 0,0 l/m 2,6 km/h SW 13,8 C 20,6 C 1,4 km/h
23.06.2011 12:00 19,9 C 62 % 1016,9 hPa 0,0 l/m 17,5 km/h S-SW 12,4 C 16,6 C 9,7 km/h
23.06.2011 13:00 21,8 C 56 % 1016,5 hPa 0,0 l/m 25,3 km/h S 12,6 C 17,8 C 14,0 km/h
23.06.2011 14:00 23,1 C 52 % 1016,2 hPa 0,0 l/m 18,8 km/h W 12,7 C 20,4 C 10,4 km/h
23.06.2011 15:00 21,4 C 51 % 1016,2 hPa 0,0 l/m 32,4 km/h W-SW 10,8 C 16,4 C 18,0 km/h
23.06.2011 16:00 24,8 C 43 % 1015,9 hPa 0,0 l/m 26,6 km/h W-SW 11,4 C 21,7 C 14,8 km/h
23.06.2011 17:00 26,1 C 38 % 1016,2 hPa 0,0 l/m 24,0 km/h W-SW 10,7 C 23,7 C 13,3 km/h
23.06.2011 18:00 21,1 C 47 % 1016,5 hPa 0,0 l/m 22,7 km/h NO 9,3 C 17,2 C 12,6 km/h
23.06.2011 19:00 16,5 C 68 % 1018,0 hPa 0,0 l/m 0,0 km/h SO 10,6 C 16,5 C 0,0 km/h
23.06.2011 20:00 15,3 C 73 % 1018,8 hPa 0,0 l/m 0,0 km/h SO 10,5 C 15,3 C 0,0 km/h
23.06.2011 21:00 14,1 C 81 % 1019,2 hPa 0,0 l/m 0,0 km/h O-SO 10,9 C 14,1 C 0,0 km/h
23.06.2011 22:00 13,4 C 84 % 1019,6 hPa 0,0 l/m 0,0 km/h SO 10,8 C 13,4 C 0,0 km/h
23.06.2011 23:00 13,1 C 85 % 1019,8 hPa 0,0 l/m 0,0 km/h O-SO 10,6 C 13,1 C 0,0 km/h
24.06.2011 00:00 12,8 C 86 % 1019,7 hPa 0,0 l/m 0,0 km/h O-SO 10,5 C 12,8 C 0,0 km/h
24.06.2011 01:00 12,3 C 86 % 1019,9 hPa 0,0 l/m 0,0 km/h O-SO 10,0 C 12,3 C 0,0 km/h
24.06.2011 02:00 12,1 C 86 % 1020,1 hPa 0,0 l/m 0,0 km/h O-SO 9,8 C 12,1 C 0,0 km/h
24.06.2011 03:00 12,1 C 86 % 1020,2 hPa 0,0 l/m 0,0 km/h O-NO 9,8 C 12,1 C 0,0 km/h
24.06.2011 04:00 11,9 C 87 % 1020,2 hPa 0,0 l/m 0,0 km/h NO 9,8 C 11,9 C 0,0 km/h
24.06.2011 05:00 12,3 C 86 % 1020,8 hPa 0,0 l/m 0,0 km/h S-SO 10,0 C 12,3 C 0,0 km/h
24.06.2011 06:00 12,5 C 86 % 1020,7 hPa 0,0 l/m 0,0 km/h NO 10,2 C 12,5 C 0,0 km/h
24.06.2011 07:00 14,5 C 86 % 1020,9 hPa 0,0 l/m 0,0 km/h O-NO 12,2 C 14,5 C 0,0 km/h
24.06.2011 08:00 18,9 C 75 % 1021,2 hPa 0,0 l/m 0,0 km/h W-SW 14,4 C 18,9 C 0,0 km/h
24.06.2011 09:00 23,4 C 54 % 1021,4 hPa 0,0 l/m 0,0 km/h W-NW 13,6 C 23,4 C 0,0 km/h
24.06.2011 10:00 22,8 C 46 % 1021,2 hPa 0,0 l/m 14,3 km/h W 10,6 C 20,8 C 7,9 km/h
24.06.2011 11:00 21,6 C 45 % 1021,1 hPa 0,0 l/m 2,6 km/h W-SW 9,2 C 21,6 C 1,4 km/h
24.06.2011 12:00 20,8 C 49 % 1021,2 hPa 0,0 l/m 13,6 km/h N-NO 9,7 C 18,5 C 7,6 km/h
24.06.2011 13:00 20,4 C 49 % 1021,2 hPa 0,0 l/m 0,0 km/h W-NW 9,3 C 20,4 C 0,0 km/h
24.06.2011 14:00 23,5 C 43 % 1020,9 hPa 0,0 l/m 21,4 km/h W 10,2 C 20,5 C 11,9 km/h
24.06.2011 15:00 22,2 C 44 % 1020,9 hPa 0,0 l/m 11,0 km/h W 9,4 C 20,8 C 6,1 km/h
24.06.2011 16:00 24,9 C 38 % 1020,9 hPa 0,0 l/m 0,0 km/h W-NW 9,6 C 24,9 C 0,0 km/h
24.06.2011 17:00 21,6 C 43 % 1021,0 hPa 0,0 l/m 0,0 km/h W 8,5 C 21,6 C 0,0 km/h
24.06.2011 18:00 21,9 C 42 % 1021,2 hPa 0,0 l/m 2,6 km/h NW 8,4 C 21,9 C 1,4 km/h
24.06.2011 19:00 21,5 C 39 % 1021,7 hPa 0,0 l/m 1,3 km/h N-NW 7,0 C 21,5 C 0,7 km/h
24.06.2011 20:00 19,2 C 44 % 1022,1 hPa 0,0 l/m 3,2 km/h N-NW 6,7 C 19,2 C 1,8 km/h
24.06.2011 21:00 16,3 C 57 % 1022,6 hPa 0,0 l/m 0,0 km/h N 7,8 C 16,3 C 0,0 km/h
24.06.2011 22:00 14,3 C 66 % 1023,3 hPa 0,0 l/m 0,0 km/h O-NO 8,0 C 14,3 C 0,0 km/h
24.06.2011 23:00 13,0 C 72 % 1023,8 hPa 0,0 l/m 0,0 km/h O-NO 8,1 C 13,0 C 0,0 km/h
25.06.2011 00:00 11,8 C 75 % 1023,9 hPa 0,0 l/m 0,0 km/h O-NO 7,5 C 11,8 C 0,0 km/h
25.06.2011 01:00 10,4 C 79 % 1024,0 hPa 0,0 l/m 0,0 km/h O-NO 6,9 C 10,4 C 0,0 km/h
25.06.2011 02:00 9,0 C 82 % 1024,0 hPa 0,0 l/m 0,0 km/h O 6,1 C 9,0 C 0,0 km/h
25.06.2011 03:00 8,0 C 84 % 1024,2 hPa 0,0 l/m 0,0 km/h O-SO 5,5 C 8,0 C 0,0 km/h
25.06.2011 04:00 8,6 C 85 % 1024,4 hPa 0,0 l/m 0,0 km/h O-SO 6,2 C 8,6 C 0,0 km/h
25.06.2011 05:00 8,8 C 85 % 1024,1 hPa 0,0 l/m 0,0 km/h NO 6,4 C 8,8 C 0,0 km/h
25.06.2011 06:00 10,5 C 84 % 1024,4 hPa 0,0 l/m 0,0 km/h O-SO 7,9 C 10,5 C 0,0 km/h
25.06.2011 07:00 12,2 C 80 % 1024,4 hPa 0,0 l/m 0,0 km/h SO 8,9 C 12,2 C 0,0 km/h
25.06.2011 08:00 15,9 C 71 % 1024,5 hPa 0,0 l/m 0,0 km/h N-NO 10,6 C 15,9 C 0,0 km/h
25.06.2011 09:00 19,6 C 55 % 1024,8 hPa 0,0 l/m 0,0 km/h W-SW 10,3 C 19,6 C 0,0 km/h
25.06.2011 10:00 24,4 C 44 % 1024,9 hPa 0,0 l/m 6,5 km/h W-NW 11,3 C 24,4 C 3,6 km/h
25.06.2011 11:00 24,8 C 40 % 1024,9 hPa 0,0 l/m 9,7 km/h NW 10,3 C 24,0 C 5,4 km/h
25.06.2011 12:00 25,1 C 38 % 1024,9 hPa 0,0 l/m 3,2 km/h SW 9,8 C 25,1 C 1,8 km/h
25.06.2011 13:00 23,1 C 41 % 1024,8 hPa 0,0 l/m 18,8 km/h NO 9,1 C 20,4 C 10,4 km/h
25.06.2011 14:00 24,9 C 40 % 1024,2 hPa 0,0 l/m 1,9 km/h W-SW 10,4 C 24,9 C 1,1 km/h
25.06.2011 15:00 26,2 C 38 % 1023,6 hPa 0,0 l/m 3,9 km/h SW 10,7 C 26,2 C 2,2 km/h
25.06.2011 16:00 24,5 C 41 % 1023,2 hPa 0,0 l/m 3,9 km/h W 10,4 C 24,5 C 2,2 km/h
25.06.2011 17:00 22,5 C 46 % 1023,3 hPa 0,0 l/m 4,5 km/h W-NW 10,3 C 22,5 C 2,5 km/h
25.06.2011 18:00 22,9 C 48 % 1023,2 hPa 0,0 l/m 1,9 km/h W-SW 11,3 C 22,9 C 1,1 km/h
25.06.2011 19:00 21,6 C 51 % 1023,6 hPa 0,0 l/m 0,0 km/h W-SW 11,0 C 21,6 C 0,0 km/h
25.06.2011 20:00 20,2 C 58 % 1023,9 hPa 0,0 l/m 0,0 km/h NO 11,7 C 20,2 C 0,0 km/h
25.06.2011 21:00 18,6 C 65 % 1023,8 hPa 0,0 l/m 0,0 km/h N-NO 11,9 C 18,6 C 0,0 km/h
25.06.2011 22:00 17,3 C 70 % 1024,0 hPa 0,0 l/m 0,0 km/h SO 11,8 C 17,3 C 0,0 km/h
25.06.2011 23:00 15,3 C 75 % 1024,0 hPa 0,0 l/m 0,0 km/h SO 10,9 C 15,3 C 0,0 km/h
26.06.2011 00:00 14,3 C 80 % 1024,0 hPa 0,0 l/m 0,0 km/h SO 10,9 C 14,3 C 0,0 km/h
26.06.2011 01:00 14,9 C 80 % 1023,8 hPa 0,0 l/m 0,0 km/h SO 11,5 C 14,9 C 0,0 km/h
26.06.2011 02:00 13,5 C 82 % 1023,3 hPa 0,0 l/m 0,0 km/h O-SO 10,5 C 13,5 C 0,0 km/h
26.06.2011 03:00 12,9 C 83 % 1023,2 hPa 0,0 l/m 0,0 km/h O-SO 10,1 C 12,9 C 0,0 km/h
26.06.2011 04:00 12,1 C 85 % 1023,0 hPa 0,0 l/m 0,0 km/h O-SO 9,7 C 12,1 C 0,0 km/h
26.06.2011 05:00 11,2 C 86 % 1022,9 hPa 0,0 l/m 0,0 km/h O-SO 8,9 C 11,2 C 0,0 km/h
26.06.2011 06:00 11,9 C 86 % 1023,2 hPa 0,0 l/m 0,0 km/h NO 9,6 C 11,9 C 0,0 km/h
26.06.2011 07:00 15,0 C 84 % 1022,8 hPa 0,0 l/m 0,0 km/h SO 12,3 C 15,0 C 0,0 km/h
26.06.2011 08:00 26,6 C 55 % 1022,9 hPa 0,0 l/m 0,0 km/h W-NW 16,8 C 26,6 C 0,0 km/h
26.06.2011 09:00 28,8 C 47 % 1022,9 hPa 0,0 l/m 0,0 km/h W-NW 16,3 C 28,8 C 0,0 km/h
26.06.2011 10:00 30,3 C 43 % 1022,5 hPa 0,0 l/m 0,0 km/h N-NO 16,3 C 30,3 C 0,0 km/h
26.06.2011 11:00 30,9 C 43 % 1022,2 hPa 0,0 l/m 0,0 km/h W 16,8 C 30,9 C 0,0 km/h
26.06.2011 12:00 28,4 C 48 % 1021,5 hPa 0,0 l/m 7,8 km/h W-NW 16,3 C 28,2 C 4,3 km/h
26.06.2011 13:00 28,9 C 48 % 1021,0 hPa 0,0 l/m 0,0 km/h W 16,8 C 28,9 C 0,0 km/h
26.06.2011 14:00 29,7 C 44 % 1020,5 hPa 0,0 l/m 17,5 km/h W 16,1 C 28,9 C 9,7 km/h
26.06.2011 15:00 32,0 C 41 % 1020,2 hPa 0,0 l/m 11,7 km/h W-SW 17,1 C 31,9 C 6,5 km/h
26.06.2011 16:00 34,5 C 37 % 1019,7 hPa 0,0 l/m 4,5 km/h W-NW 17,7 C 34,5 C 2,5 km/h
26.06.2011 17:00 35,9 C 34 % 1019,3 hPa 0,0 l/m 0,0 km/h W 17,5 C 35,9 C 0,0 km/h
26.06.2011 18:00 35,3 C 34 % 1018,7 hPa 0,0 l/m 10,4 km/h NW 17,0 C 35,3 C 5,8 km/h
26.06.2011 19:00 31,8 C 39 % 1018,5 hPa 0,0 l/m 13,0 km/h W-NW 16,1 C 31,6 C 7,2 km/h
26.06.2011 20:00 26,3 C 55 % 1018,6 hPa 0,0 l/m 0,0 km/h N 16,5 C 26,3 C 0,0 km/h
26.06.2011 21:00 22,5 C 67 % 1018,6 hPa 0,0 l/m 0,0 km/h O 16,1 C 22,5 C 0,0 km/h
26.06.2011 22:00 19,5 C 77 % 1018,9 hPa 0,0 l/m 0,0 km/h NO 15,4 C 19,5 C 0,0 km/h
26.06.2011 23:00 18,1 C 81 % 1019,0 hPa 0,0 l/m 0,0 km/h O-SO 14,8 C 18,1 C 0,0 km/h
Min-Datum _ 25.06.11 26.06.11 22.06.11 - 20.06.11 - 25.06.11 25.06.11 20.06.11
_ Min-Zeit 03:30 17:30 14:30 - 00:30 - 03:30 03:30 00:30
Minimum _ 8,0 C 34 % 1010,1 hPa - 0,0 km/h - 5,5 C 8,0 C 0,0 km/h
Max-Datum _ 26.06.11 24.06.11 25.06.11 22.06.11 23.06.11 - 22.06.11 26.06.11 23.06.11
_ Max-Zeit 17:30 04:30 10:30 17:30 15:30 - 13:30 17:30 15:30
Maximum _ 35,9 C 87 % 1024,9 hPa 3,2 l/m 32,4 km/h
W-SW
- 19,6 C 35,9 C 18,0 km/h
W-SW
Durchschnitt _ 19,7 C 67 % 1018,2 hPa #9,6 l/m 4,7 km/h SO 12,5 C 19,1 C 2,6 km/h
www.sexauwetter.de